Dewmaine, Illinois
Current Conditions -  °F | °C
As of 12:50 PM on Monday 20 Oct 2014 (Local Time) from KMWA Reporting Station
Clear Clear  
Wind Chill: 70°   Ceiling: Unl
Heat Index: 70°   Visibility: 20mi
Dew Point: 55°   Wind: 9mph
Humidity: 60%   Direction: 240°WSW
Pressure: 29.97"   Gusts: NA
Location:  37.7927°N, 89.0997°W
Report Text: KMWA 201750Z 24008KT 20SM SKC 21/13 A2997
Loading
Personal Weather Stations






























Interactive Weather Map
Tropical Storm Tracking
New forecast layout! Learn more

10-Day Weather Forecast

Advertisements
Track Severe Weather on mobile